createdAt,value
2022-09-09T00:00:33.070Z,20.17
2022-09-09T00:05:02.465Z,20.26
2022-09-09T00:09:20.213Z,20.31
2022-09-09T00:13:46.303Z,20.27
2022-09-09T00:18:18.492Z,20.13
2022-09-09T00:22:35.121Z,20.28
2022-09-09T00:26:54.867Z,20.02
2022-09-09T00:31:19.362Z,20.10
2022-09-09T00:35:45.945Z,19.92
2022-09-09T00:40:08.141Z,19.98
2022-09-09T00:44:37.665Z,19.78
2022-09-09T00:49:34.962Z,19.82
2022-09-09T00:54:23.107Z,19.75
2022-09-09T00:58:39.214Z,19.81
2022-09-09T01:03:18.570Z,19.73
2022-09-09T01:07:35.359Z,19.59
2022-09-09T01:12:04.261Z,19.71
2022-09-09T01:16:20.586Z,19.66
2022-09-09T01:21:14.097Z,19.96
2022-09-09T01:25:45.174Z,19.97
2022-09-09T01:30:01.192Z,19.67
2022-09-09T01:34:17.482Z,19.55
2022-09-09T01:38:34.212Z,19.69
2022-09-09T01:42:50.208Z,19.76
2022-09-09T01:47:07.382Z,19.52
2022-09-09T01:51:23.957Z,19.53
2022-09-09T01:55:41.701Z,19.54
2022-09-09T02:00:15.251Z,19.33
2022-09-09T02:04:40.486Z,19.44
2022-09-09T02:09:01.913Z,19.39
2022-09-09T02:13:20.549Z,19.43
2022-09-09T02:17:39.483Z,19.30
2022-09-09T02:22:00.402Z,19.38
2022-09-09T02:26:21.410Z,19.35
2022-09-09T02:30:39.258Z,19.24
2022-09-09T02:34:58.963Z,19.16
2022-09-09T02:39:15.212Z,19.18
2022-09-09T02:43:35.454Z,19.02
2022-09-09T02:48:00.880Z,19.07
2022-09-09T02:52:22.101Z,18.94
2022-09-09T02:56:43.227Z,19.00
2022-09-09T03:00:59.804Z,18.78
2022-09-09T03:05:16.057Z,18.89
2022-09-09T03:09:33.763Z,18.84
2022-09-09T03:13:50.476Z,18.72
2022-09-09T03:18:06.719Z,18.49
2022-09-09T03:22:22.773Z,18.67
2022-09-09T03:26:38.812Z,18.70
2022-09-09T03:30:58.765Z,18.16
2022-09-09T03:35:15.035Z,18.60
2022-09-09T03:39:31.141Z,18.47
2022-09-09T03:43:47.152Z,18.44
2022-09-09T03:48:03.412Z,18.39
2022-09-09T03:52:23.547Z,18.39
2022-09-09T03:56:42.475Z,18.19
2022-09-09T04:01:04.777Z,18.31
2022-09-09T04:05:20.718Z,18.45
2022-09-09T04:09:36.750Z,18.46
2022-09-09T04:13:53.032Z,18.50
2022-09-09T04:18:09.383Z,18.50
2022-09-09T04:22:25.314Z,18.63
2022-09-09T04:26:41.719Z,18.45
2022-09-09T04:30:58.102Z,18.61
2022-09-09T04:35:14.298Z,18.66
2022-09-09T04:39:30.389Z,18.73
2022-09-09T04:43:46.541Z,18.65
2022-09-09T04:48:03.775Z,18.67
2022-09-09T04:52:19.850Z,18.64
2022-09-09T04:56:35.813Z,18.77
2022-09-09T05:00:53.046Z,18.66
2022-09-09T05:05:09.146Z,18.73
2022-09-09T05:09:25.220Z,18.83
2022-09-09T05:13:41.604Z,18.76
2022-09-09T05:18:01.874Z,18.99
2022-09-09T05:22:22.206Z,18.99
2022-09-09T05:26:38.121Z,19.05
2022-09-09T05:31:01.583Z,19.31
2022-09-09T05:35:19.632Z,19.28
2022-09-09T05:39:38.010Z,19.39
2022-09-09T05:43:54.048Z,19.49
2022-09-09T05:48:10.126Z,19.50
2022-09-09T05:52:27.463Z,19.58
2022-09-09T05:56:43.478Z,19.38
2022-09-09T06:01:08.077Z,19.49
2022-09-09T06:05:24.515Z,19.38
2022-09-09T06:09:40.435Z,19.50
2022-09-09T06:13:57.369Z,19.72
2022-09-09T06:18:13.923Z,20.12
2022-09-09T06:22:29.807Z,20.02
2022-09-09T06:26:46.588Z,19.91
2022-09-09T06:31:05.238Z,19.45
2022-09-09T06:35:21.250Z,19.50
2022-09-09T06:39:37.213Z,19.94
2022-09-09T06:43:53.761Z,19.86
2022-09-09T06:48:10.039Z,20.17
2022-09-09T06:52:26.798Z,20.10
2022-09-09T06:56:44.260Z,19.89
2022-09-09T07:01:05.568Z,20.13
2022-09-09T07:05:22.391Z,20.34
2022-09-09T07:09:38.590Z,20.43
2022-09-09T07:13:55.258Z,20.00
2022-09-09T07:18:11.427Z,20.38
2022-09-09T07:22:28.748Z,20.67
2022-09-09T07:26:45.580Z,19.63
2022-09-09T07:31:04.041Z,20.14
2022-09-09T07:35:20.039Z,19.78
2022-09-09T07:39:36.217Z,20.41
2022-09-09T07:43:52.757Z,21.17
2022-09-09T07:48:09.905Z,21.15
2022-09-09T07:52:26.081Z,21.19
2022-09-09T07:56:43.615Z,20.80
2022-09-09T08:00:59.752Z,20.94
2022-09-09T08:05:16.218Z,21.48
2022-09-09T08:09:33.467Z,21.70
2022-09-09T08:13:53.960Z,21.93
2022-09-09T08:18:10.883Z,21.71
2022-09-09T08:22:27.655Z,22.24
2022-09-09T08:26:50.008Z,21.79
2022-09-09T08:31:17.422Z,22.44
2022-09-09T08:35:33.776Z,22.15
2022-09-09T08:39:53.931Z,21.71
2022-09-09T08:44:32.073Z,22.45
2022-09-09T08:49:37.279Z,22.44
2022-09-09T08:53:57.734Z,22.16
2022-09-09T08:58:32.648Z,22.12
2022-09-09T09:02:54.386Z,22.30
2022-09-09T09:07:35.975Z,22.67
2022-09-09T09:11:55.958Z,22.65
2022-09-09T09:16:24.603Z,22.96
2022-09-09T09:20:59.654Z,23.24
2022-09-09T09:25:35.428Z,23.46
2022-09-09T09:30:21.090Z,23.81
2022-09-09T09:34:28.014Z,23.46
2022-09-09T09:43:33.633Z,24.57
2022-09-09T09:48:04.100Z,24.96
2022-09-09T09:52:26.681Z,25.14
2022-09-09T09:56:44.063Z,25.67
2022-09-09T10:01:00.704Z,25.04
2022-09-09T10:05:29.134Z,24.67
2022-09-09T10:09:52.218Z,24.82
2022-09-09T10:14:27.100Z,25.44
2022-09-09T10:18:46.227Z,26.08
2022-09-09T10:23:56.016Z,26.23
2022-09-09T10:28:48.420Z,26.30
2022-09-09T10:33:17.247Z,25.97
2022-09-09T10:37:53.400Z,26.45
2022-09-09T10:42:15.400Z,26.61
2022-09-09T10:46:31.947Z,26.15
2022-09-09T10:51:01.258Z,26.54
2022-09-09T10:55:22.553Z,26.96
2022-09-09T10:59:44.511Z,26.35
2022-09-09T11:04:12.541Z,26.85
2022-09-09T11:08:30.334Z,26.64
2022-09-09T11:12:48.991Z,26.39
2022-09-09T11:17:28.175Z,27.18
2022-09-09T11:21:50.506Z,27.53
2022-09-09T11:26:08.552Z,27.49
2022-09-09T11:30:54.808Z,27.72
2022-09-09T11:35:28.384Z,28.23
2022-09-09T11:40:10.950Z,28.97
2022-09-09T11:44:32.288Z,29.29
2022-09-09T11:49:04.292Z,28.89
2022-09-09T11:53:24.003Z,27.89
2022-09-09T11:57:43.788Z,28.73
2022-09-09T12:02:27.756Z,29.52
2022-09-09T12:06:51.903Z,29.50
2022-09-09T12:11:08.166Z,30.40
2022-09-09T12:15:30.348Z,29.70
2022-09-09T12:19:46.693Z,30.20
2022-09-09T12:24:18.218Z,30.17
2022-09-09T12:29:08.523Z,30.00
2022-09-09T12:33:25.088Z,29.91
2022-09-09T12:37:51.015Z,29.89
2022-09-09T12:42:16.922Z,30.51
2022-09-09T12:46:43.286Z,30.50
2022-09-09T12:51:00.587Z,30.10
2022-09-09T12:55:32.011Z,29.68
2022-09-09T12:59:49.242Z,29.52
2022-09-09T13:04:20.694Z,29.61
2022-09-09T13:08:36.955Z,29.63
2022-09-09T13:12:53.042Z,29.95
2022-09-09T13:17:19.107Z,29.23
2022-09-09T13:21:40.145Z,29.84
2022-09-09T13:26:01.309Z,29.31
2022-09-09T13:30:33.384Z,29.55
2022-09-09T13:34:54.959Z,28.28
2022-09-09T13:39:19.566Z,28.42
2022-09-09T13:43:43.610Z,28.10
2022-09-09T13:48:09.517Z,28.29
2022-09-09T13:52:28.240Z,28.20
2022-09-09T13:56:44.984Z,28.32
2022-09-09T14:01:01.038Z,28.52
2022-09-09T14:05:17.970Z,28.06
2022-09-09T14:09:33.927Z,28.80
2022-09-09T14:13:53.160Z,29.00
2022-09-09T14:18:14.928Z,28.98
2022-09-09T14:22:30.912Z,28.99
2022-09-09T14:26:46.821Z,29.59
2022-09-09T14:31:04.853Z,29.69
2022-09-09T14:35:20.941Z,30.00
2022-09-09T14:39:37.020Z,30.48
2022-09-09T14:43:53.484Z,30.34
2022-09-09T14:48:09.452Z,30.17
2022-09-09T14:52:26.708Z,30.44
2022-09-09T14:56:42.713Z,30.22
2022-09-09T15:01:07.499Z,30.17
2022-09-09T15:05:25.342Z,30.25
2022-09-09T15:09:41.422Z,30.36
2022-09-09T15:13:57.622Z,30.21
2022-09-09T15:18:14.967Z,30.23
2022-09-09T15:22:31.024Z,30.31
2022-09-09T15:26:47.773Z,30.52
2022-09-09T15:31:07.510Z,30.70
2022-09-09T15:35:23.472Z,30.60
2022-09-09T15:39:39.780Z,30.31
2022-09-09T15:44:01.577Z,30.15
2022-09-09T15:48:17.591Z,30.23
2022-09-09T15:52:34.350Z,29.99
2022-09-09T15:56:53.801Z,29.77
2022-09-09T16:01:12.602Z,29.50
2022-09-09T16:05:28.746Z,29.27
2022-09-09T16:09:44.771Z,28.98
2022-09-09T16:14:01.196Z,28.62
2022-09-09T16:18:17.245Z,28.38
2022-09-09T16:22:33.261Z,28.29
2022-09-09T16:26:53.818Z,28.01
2022-09-09T16:31:12.322Z,27.84
2022-09-09T16:35:28.249Z,27.81
2022-09-09T16:39:44.287Z,27.55
2022-09-09T16:44:05.359Z,27.37
2022-09-09T16:48:21.502Z,27.28
2022-09-09T16:52:38.602Z,27.09
2022-09-09T16:56:54.744Z,27.01
2022-09-09T17:01:15.492Z,26.96
2022-09-09T17:05:31.693Z,26.93
2022-09-09T17:09:47.778Z,26.76
2022-09-09T17:14:04.396Z,26.53
2022-09-09T17:18:21.788Z,26.36
2022-09-09T17:22:38.042Z,26.11
2022-09-09T17:26:54.108Z,26.10
2022-09-09T17:31:11.832Z,25.91
2022-09-09T17:35:28.367Z,25.84
2022-09-09T17:39:45.738Z,25.66
2022-09-09T17:44:02.065Z,25.42
2022-09-09T17:48:18.139Z,25.52
2022-09-09T17:52:36.165Z,25.49
2022-09-09T17:56:53.372Z,25.34
2022-09-09T18:01:15.251Z,25.23
2022-09-09T18:05:31.367Z,25.28
2022-09-09T18:09:47.358Z,25.03
2022-09-09T18:14:04.604Z,24.96
2022-09-09T18:18:21.297Z,24.76
2022-09-09T18:22:38.434Z,24.59
2022-09-09T18:26:55.104Z,24.40
2022-09-09T18:31:14.452Z,24.54
2022-09-09T18:35:30.582Z,24.40
2022-09-09T18:39:48.152Z,24.34
2022-09-09T18:44:11.157Z,24.37
2022-09-09T18:48:27.057Z,24.45
2022-09-09T18:52:43.147Z,24.38
2022-09-09T18:57:00.913Z,24.20
2022-09-09T19:01:17.078Z,24.31
2022-09-09T19:05:33.368Z,23.71
2022-09-09T19:09:49.415Z,23.68
2022-09-09T19:14:10.742Z,23.79
2022-09-09T19:18:27.796Z,23.74
2022-09-09T19:22:43.814Z,23.80
2022-09-09T19:27:02.261Z,23.92
2022-09-09T19:31:19.877Z,23.91
2022-09-09T19:35:35.903Z,23.89
2022-09-09T19:39:52.241Z,23.91
2022-09-09T19:44:12.081Z,23.75
2022-09-09T19:48:31.962Z,23.71
2022-09-09T19:52:48.548Z,23.43
2022-09-09T19:57:06.020Z,23.57
2022-09-09T20:01:30.165Z,23.50
2022-09-09T20:05:46.168Z,23.38
2022-09-09T20:10:02.254Z,23.54
2022-09-09T20:14:18.698Z,23.45
2022-09-09T20:18:36.907Z,23.19
2022-09-09T20:22:53.759Z,22.88
2022-09-09T20:27:10.089Z,23.06
2022-09-09T20:31:28.567Z,23.06
2022-09-09T20:35:45.793Z,22.96
2022-09-09T20:40:02.284Z,22.92
2022-09-09T20:44:21.833Z,23.04
2022-09-09T20:48:37.883Z,22.86
2022-09-09T20:52:54.013Z,23.03
2022-09-09T20:57:11.064Z,23.22
2022-09-09T21:01:28.390Z,23.25
2022-09-09T21:05:44.481Z,23.12
2022-09-09T21:10:01.895Z,23.14
2022-09-09T21:14:17.957Z,23.21
2022-09-09T21:18:34.803Z,23.25
2022-09-09T21:22:50.728Z,23.20
2022-09-09T21:27:06.851Z,23.16
2022-09-09T21:31:27.975Z,23.18
2022-09-09T21:35:44.972Z,23.32
2022-09-09T21:40:00.975Z,22.93
2022-09-09T21:44:16.968Z,22.79
2022-09-09T21:48:33.065Z,22.78
2022-09-09T21:52:49.880Z,22.46
2022-09-09T21:57:05.916Z,22.47
2022-09-09T22:01:25.032Z,22.73
2022-09-09T22:05:43.795Z,22.68
2022-09-09T22:10:00.078Z,22.43
2022-09-09T22:14:16.397Z,22.11
2022-09-09T22:18:32.649Z,21.99
2022-09-09T22:22:48.647Z,21.88
2022-09-09T22:27:05.001Z,21.97
2022-09-09T22:31:23.034Z,21.89
2022-09-09T22:35:43.347Z,22.13
2022-09-09T22:39:59.515Z,22.03
2022-09-09T22:44:15.561Z,22.12
2022-09-09T22:48:35.892Z,22.10
2022-09-09T22:52:52.729Z,22.28
2022-09-09T22:57:09.592Z,22.05
2022-09-09T23:01:27.586Z,22.26
2022-09-09T23:05:43.580Z,22.11
2022-09-09T23:09:59.742Z,22.07
2022-09-09T23:14:15.678Z,22.04
2022-09-09T23:18:33.654Z,22.02
2022-09-09T23:22:49.625Z,21.91
2022-09-09T23:27:05.693Z,21.96
2022-09-09T23:31:25.070Z,21.94
2022-09-09T23:35:41.170Z,21.83
2022-09-09T23:39:57.298Z,21.67
2022-09-09T23:44:13.832Z,21.79
2022-09-09T23:48:30.317Z,21.50
2022-09-09T23:52:47.125Z,21.67
2022-09-09T23:57:03.963Z,21.67
